Pagina principale
METAR-TAF:

METAR-TAF

Aeroporti :

Wasilla, Alaska, Stati Uniti

latitudine: 61-34-19N, longitudine: 149-32-26W, altezza: 106 m

Osservazione

Il bollettino è stato emesso 54 minuti fa, alle 14:56 UTC
Vento 6 kt da est/nord-est
Temperature 8°C
Umidità 53%
Pressione 1010 hPa
Visibilità: 16.1 km
Cielo coperto ad un'altezza di 7000 ft

METAR: PAWS 221456Z AUTO 07006KT 10SM OVC070 08/M01 A2983 RMK AO2 SLP106 T00831006 58009

Ora: 07:50 (15:50 UTC)


TAF: mancante

Osservazioni e previsioni meteorologiche di più di 4000 aeroporti (messaggi METAR e TAF).

Le stazioni disponibili sono rappresentate dai dischi gialli e rossi sulla carta.

Puntare il mouse per vedere il nome della stazione.

Clicca sopra per visualizzare le osservazioni e previsioni meteorologiche.

Per cambiare la mappa : fare clic sui pulsanti verdi con una croce nera per ingrandire, il pulsante verde con un trattino per diminuire, o sulla freccia verde per le mappe adiacenti.


METAR-TAF: